createdAt,value
2019-05-25T00:02:54.791Z,9.50
2019-05-25T00:05:27.645Z,11.33
2019-05-25T00:08:00.323Z,10.10
2019-05-25T00:10:32.862Z,9.08
2019-05-25T00:13:05.339Z,10.10
2019-05-25T00:15:37.808Z,11.68
2019-05-25T00:18:10.435Z,12.37
2019-05-25T00:20:43.010Z,12.00
2019-05-25T00:23:17.311Z,9.58
2019-05-25T00:25:50.276Z,12.95
2019-05-25T00:28:22.772Z,9.00
2019-05-25T00:30:55.297Z,9.40
2019-05-25T00:33:27.877Z,11.80
2019-05-25T00:36:00.471Z,9.85
2019-05-25T00:38:33.374Z,10.45
2019-05-25T00:41:05.577Z,8.15
2019-05-25T00:43:44.283Z,10.80
2019-05-25T00:48:49.654Z,10.43
2019-05-25T00:51:22.366Z,10.60
2019-05-25T00:53:54.823Z,12.45
2019-05-25T00:56:29.164Z,11.57
2019-05-25T00:59:01.626Z,15.90
2019-05-25T01:01:34.286Z,13.33
2019-05-25T01:04:06.890Z,12.75
2019-05-25T01:06:39.785Z,15.20
2019-05-25T01:09:12.320Z,9.00
2019-05-25T01:11:46.256Z,13.10
2019-05-25T01:14:18.643Z,10.55
2019-05-25T01:16:51.370Z,12.84
2019-05-25T01:19:24.054Z,12.57
2019-05-25T01:21:56.708Z,11.73
2019-05-25T01:24:43.420Z,10.93
2019-05-25T01:27:03.606Z,8.90
2019-05-25T01:29:36.325Z,13.65
2019-05-25T01:32:09.309Z,9.70
2019-05-25T01:34:41.759Z,11.35
2019-05-25T01:37:17.297Z,10.13
2019-05-25T01:39:49.701Z,11.90
2019-05-25T01:42:22.582Z,11.90
2019-05-25T01:44:55.298Z,10.95
2019-05-25T01:47:28.367Z,10.48
2019-05-25T01:50:00.549Z,10.90
2019-05-25T01:52:34.298Z,9.70
2019-05-25T01:55:09.293Z,14.18
2019-05-25T01:57:41.835Z,12.15
2019-05-25T02:02:46.879Z,12.05
2019-05-25T02:05:19.779Z,12.50
2019-05-25T02:07:52.818Z,10.03
2019-05-25T02:10:26.864Z,11.45
2019-05-25T02:12:59.430Z,10.25
2019-05-25T02:15:32.283Z,13.13
2019-05-25T02:18:04.786Z,10.08
2019-05-25T02:20:38.870Z,13.60
2019-05-25T02:23:11.509Z,8.40
2019-05-25T02:25:43.840Z,9.35
2019-05-25T02:28:17.195Z,8.80
2019-05-25T02:30:50.766Z,9.58
2019-05-25T02:33:23.331Z,11.38
2019-05-25T02:35:55.715Z,11.55
2019-05-25T02:38:28.294Z,11.90
2019-05-25T02:41:01.345Z,12.28
2019-05-25T02:43:33.807Z,10.60
2019-05-25T02:46:06.601Z,10.20
2019-05-25T02:48:39.282Z,11.75
2019-05-25T02:51:14.974Z,9.85
2019-05-25T02:53:47.647Z,13.25
2019-05-25T02:56:20.289Z,12.30
2019-05-25T02:58:53.329Z,10.37
2019-05-25T03:01:26.129Z,12.37
2019-05-25T03:03:58.661Z,11.73
2019-05-25T03:06:31.565Z,9.85
2019-05-25T03:09:07.300Z,13.40
2019-05-25T03:11:41.797Z,10.28
2019-05-25T03:14:19.300Z,11.75
2019-05-25T03:16:51.817Z,8.96
2019-05-25T03:19:24.389Z,10.28
2019-05-25T03:21:56.726Z,12.88
2019-05-25T03:24:29.341Z,13.78
2019-05-25T03:27:02.294Z,12.18
2019-05-25T03:29:35.298Z,9.53
2019-05-25T03:32:08.027Z,12.82
2019-05-25T03:34:42.410Z,14.70
2019-05-25T03:37:15.362Z,10.00
2019-05-25T03:39:48.794Z,11.75
2019-05-25T03:42:21.495Z,15.50
2019-05-25T03:44:55.429Z,10.32
2019-05-25T03:47:28.291Z,10.37
2019-05-25T03:50:01.826Z,11.33
2019-05-25T03:52:34.369Z,9.48
2019-05-25T03:55:11.282Z,13.70
2019-05-25T03:57:43.883Z,12.47
2019-05-25T04:00:21.793Z,14.93
2019-05-25T04:02:54.302Z,13.90
2019-05-25T04:05:26.733Z,12.57
2019-05-25T04:07:59.293Z,11.68
2019-05-25T04:10:33.521Z,14.70
2019-05-25T04:13:06.391Z,11.60
2019-05-25T04:15:41.867Z,12.28
2019-05-25T04:18:17.537Z,13.80
2019-05-25T04:20:51.830Z,10.95
2019-05-25T04:23:24.285Z,10.94
2019-05-25T04:25:56.867Z,11.78
2019-05-25T04:28:29.333Z,13.90
2019-05-25T04:31:03.294Z,10.65
2019-05-25T04:33:35.630Z,10.95
2019-05-25T04:36:39.847Z,11.88
2019-05-25T04:39:12.298Z,10.53
2019-05-25T04:41:44.605Z,9.80
2019-05-25T04:44:18.295Z,14.50
2019-05-25T04:46:52.395Z,11.66
2019-05-25T04:49:24.734Z,15.03
2019-05-25T04:51:57.339Z,11.68
2019-05-25T04:57:01.347Z,9.43
2019-05-25T04:59:33.732Z,9.95
2019-05-25T05:02:06.432Z,12.18
2019-05-25T05:04:40.371Z,16.05
2019-05-25T05:07:12.685Z,14.75
2019-05-25T05:09:45.280Z,16.32
2019-05-25T05:12:18.405Z,10.90
2019-05-25T05:14:50.803Z,10.58
2019-05-25T05:17:23.286Z,12.02
2019-05-25T05:19:55.604Z,9.33
2019-05-25T05:22:28.283Z,10.43
2019-05-25T05:25:00.657Z,8.95
2019-05-25T05:27:33.309Z,10.00
2019-05-25T05:30:08.970Z,9.25
2019-05-25T05:32:41.299Z,9.85
2019-05-25T05:35:14.516Z,10.43
2019-05-25T05:37:49.707Z,11.18
2019-05-25T05:40:22.317Z,13.40
2019-05-25T05:42:59.271Z,9.90
2019-05-25T05:45:35.294Z,10.97
2019-05-25T05:48:10.289Z,10.95
2019-05-25T05:50:43.298Z,10.85
2019-05-25T05:53:15.871Z,9.13
2019-05-25T05:55:48.661Z,13.62
2019-05-25T05:58:21.294Z,10.25
2019-05-25T06:00:53.598Z,10.82
2019-05-25T06:03:26.018Z,12.25
2019-05-25T06:05:58.485Z,10.58
2019-05-25T06:08:30.971Z,11.43
2019-05-25T06:11:03.362Z,10.72
2019-05-25T06:13:35.734Z,11.37
2019-05-25T06:16:08.281Z,10.68
2019-05-25T06:18:40.727Z,10.00
2019-05-25T06:21:13.334Z,15.18
2019-05-25T06:23:45.690Z,14.53
2019-05-25T06:26:19.048Z,9.00
2019-05-25T06:28:51.458Z,10.10
2019-05-25T06:31:23.795Z,9.80
2019-05-25T06:33:56.287Z,11.33
2019-05-25T06:36:28.754Z,11.18
2019-05-25T06:39:01.393Z,11.05
2019-05-25T06:41:34.290Z,16.17
2019-05-25T06:44:07.593Z,9.95
2019-05-25T06:49:12.362Z,20.68
2019-05-25T06:51:45.436Z,17.42
2019-05-25T06:54:21.291Z,21.90
2019-05-25T06:59:25.306Z,13.18
2019-05-25T07:04:29.307Z,11.68
2019-05-25T07:07:01.755Z,11.78
2019-05-25T07:09:34.500Z,12.47
2019-05-25T07:12:07.338Z,10.88
2019-05-25T07:14:39.856Z,12.20
2019-05-25T07:17:12.344Z,13.38
2019-05-25T07:19:44.756Z,10.45
2019-05-25T07:22:17.353Z,10.72
2019-05-25T07:24:49.673Z,13.60
2019-05-25T07:27:22.294Z,10.28
2019-05-25T07:29:54.639Z,11.25
2019-05-25T07:32:27.280Z,12.50
2019-05-25T07:34:59.584Z,9.10
2019-05-25T07:37:32.291Z,11.83
2019-05-25T07:40:07.292Z,7.95
2019-05-25T07:42:39.783Z,8.10
2019-05-25T07:45:12.799Z,7.80
2019-05-25T07:47:45.299Z,8.43
2019-05-25T07:50:19.768Z,9.95
2019-05-25T07:52:52.292Z,9.88
2019-05-25T07:55:24.757Z,9.38
2019-05-25T07:57:57.292Z,9.70
2019-05-25T08:00:29.977Z,13.55
2019-05-25T08:03:02.358Z,7.90
2019-05-25T08:05:34.764Z,8.23
2019-05-25T08:08:08.703Z,11.25
2019-05-25T08:10:41.289Z,9.63
2019-05-25T08:13:13.272Z,7.83
2019-05-25T08:15:45.893Z,7.30
2019-05-25T08:18:19.465Z,7.44
2019-05-25T08:20:52.810Z,11.03
2019-05-25T08:23:25.314Z,8.90
2019-05-25T08:25:57.665Z,9.70
2019-05-25T08:28:33.158Z,8.88
2019-05-25T08:31:04.557Z,8.15
2019-05-25T08:33:37.280Z,7.78
2019-05-25T08:36:09.630Z,12.45
2019-05-25T08:38:42.055Z,11.03
2019-05-25T08:41:14.462Z,9.73
2019-05-25T08:43:46.802Z,12.37
2019-05-25T08:48:51.596Z,13.70
2019-05-25T08:53:56.833Z,7.75
2019-05-25T08:56:29.567Z,8.63
2019-05-25T08:59:02.064Z,7.72
2019-05-25T09:01:34.678Z,7.92
2019-05-25T09:04:07.296Z,7.47
2019-05-25T09:06:39.820Z,8.60
2019-05-25T09:09:12.311Z,8.03
2019-05-25T09:11:44.362Z,7.75
2019-05-25T09:14:16.761Z,7.05
2019-05-25T09:16:50.411Z,13.00
2019-05-25T09:19:23.041Z,8.15
2019-05-25T09:22:02.640Z,10.25
2019-05-25T09:24:29.683Z,9.63
2019-05-25T09:27:02.295Z,8.93
2019-05-25T09:29:35.034Z,9.35
2019-05-25T09:32:07.759Z,10.15
2019-05-25T09:34:43.324Z,10.13
2019-05-25T09:37:16.297Z,7.42
2019-05-25T09:39:50.849Z,11.92
2019-05-25T09:42:52.445Z,8.88
2019-05-25T09:45:25.038Z,8.98
2019-05-25T09:47:59.298Z,7.28
2019-05-25T09:50:31.689Z,8.07
2019-05-25T09:53:04.298Z,9.98
2019-05-25T09:55:36.678Z,9.70
2019-05-25T09:58:09.298Z,10.28
2019-05-25T10:00:41.869Z,10.90
2019-05-25T10:03:14.444Z,15.32
2019-05-25T10:05:46.836Z,9.23
2019-05-25T10:08:20.378Z,9.08
2019-05-25T10:10:52.781Z,13.10
2019-05-25T10:13:25.289Z,10.76
2019-05-25T10:15:58.983Z,8.53
2019-05-25T10:18:31.457Z,10.35
2019-05-25T10:21:03.910Z,12.05
2019-05-25T10:23:36.731Z,7.75
2019-05-25T10:26:09.298Z,8.63
2019-05-25T10:28:41.612Z,6.90
2019-05-25T10:31:14.010Z,7.20
2019-05-25T10:33:46.665Z,11.08
2019-05-25T10:39:24.011Z,12.90
2019-05-25T10:41:56.491Z,9.95
2019-05-25T10:44:30.567Z,9.53
2019-05-25T10:47:03.286Z,12.13
2019-05-25T10:49:38.260Z,9.30
2019-05-25T10:52:10.537Z,8.70
2019-05-25T10:54:43.317Z,12.25
2019-05-25T10:57:15.851Z,8.28
2019-05-25T10:59:52.973Z,5.28
2019-05-25T11:02:22.566Z,8.38
2019-05-25T11:04:55.299Z,4.92
2019-05-25T11:07:27.861Z,3.20
2019-05-25T11:12:42.294Z,3.75
2019-05-25T11:15:15.572Z,4.42
2019-05-25T11:18:41.781Z,5.10
2019-05-25T11:23:47.729Z,3.83
2019-05-25T11:28:54.310Z,3.65
2019-05-25T11:31:27.678Z,4.08
2019-05-25T11:34:00.533Z,4.10
2019-05-25T11:36:33.104Z,3.95
2019-05-25T11:39:07.520Z,4.85
2019-05-25T11:41:39.823Z,3.95
2019-05-25T11:44:12.524Z,4.35
2019-05-25T11:46:45.297Z,4.83
2019-05-25T11:49:23.128Z,4.92
2019-05-25T11:52:20.493Z,2.98
2019-05-25T11:55:12.500Z,3.65
2019-05-25T12:01:59.810Z,2.75
2019-05-25T12:04:34.292Z,6.03
2019-05-25T12:07:07.053Z,1.98
2019-05-25T12:09:43.314Z,1.55
2019-05-25T12:12:23.496Z,2.05
2019-05-25T12:16:00.895Z,3.67
2019-05-25T12:18:41.279Z,1.85
2019-05-25T12:21:15.529Z,2.08
2019-05-25T12:23:49.772Z,2.85
2019-05-25T12:26:23.415Z,4.90
2019-05-25T12:28:55.355Z,4.38
2019-05-25T12:31:31.051Z,3.72
2019-05-25T12:34:21.698Z,3.22
2019-05-25T12:36:54.144Z,5.97
2019-05-25T12:40:31.034Z,4.70
2019-05-25T12:45:36.846Z,5.30
2019-05-25T12:48:09.387Z,4.25
2019-05-25T12:50:41.698Z,10.63
2019-05-25T12:53:14.351Z,7.17
2019-05-25T12:55:46.667Z,8.00
2019-05-25T12:58:19.338Z,6.20
2019-05-25T13:00:56.506Z,7.53
2019-05-25T13:03:29.865Z,3.90
2019-05-25T13:08:34.031Z,5.35
2019-05-25T13:11:09.573Z,5.40
2019-05-25T13:13:40.701Z,3.50
2019-05-25T13:16:14.774Z,6.85
2019-05-25T13:18:49.057Z,6.17
2019-05-25T13:21:22.303Z,3.95
2019-05-25T13:23:54.854Z,4.60
2019-05-25T13:26:27.315Z,3.37
2019-05-25T13:28:59.367Z,5.78
2019-05-25T13:34:03.285Z,2.33
2019-05-25T13:36:37.658Z,3.97
2019-05-25T13:39:11.330Z,4.17
2019-05-25T13:41:43.517Z,3.47
2019-05-25T13:44:15.871Z,7.15
2019-05-25T13:46:48.485Z,4.78
2019-05-25T13:49:22.347Z,6.70
2019-05-25T13:51:54.982Z,3.55
2019-05-25T13:54:27.346Z,4.80
2019-05-25T13:57:00.040Z,8.38
2019-05-25T13:59:34.431Z,3.85
2019-05-25T14:02:07.062Z,3.40
2019-05-25T14:04:39.778Z,4.37
2019-05-25T14:07:12.688Z,5.37
2019-05-25T14:09:45.305Z,3.52
2019-05-25T14:12:17.642Z,3.02
2019-05-25T14:16:17.882Z,1.55
2019-05-25T14:18:50.376Z,2.52
2019-05-25T14:21:22.879Z,2.62
2019-05-25T14:23:55.434Z,2.47
2019-05-25T14:26:27.845Z,2.45
2019-05-25T14:29:00.592Z,1.60
2019-05-25T14:31:45.101Z,3.62
2019-05-25T14:34:08.521Z,2.58
2019-05-25T15:22:38.052Z,22.67
2019-05-25T15:25:13.012Z,24.92
2019-05-25T15:27:45.573Z,28.55
2019-05-25T15:30:19.156Z,18.50
2019-05-25T15:32:53.887Z,13.98
2019-05-25T15:35:27.106Z,21.85
2019-05-25T15:38:00.211Z,27.75
2019-05-25T15:40:32.962Z,18.02
2019-05-25T15:43:06.028Z,49.07
2019-05-25T15:45:38.539Z,16.95
2019-05-25T15:48:11.695Z,20.80
2019-05-25T15:50:54.441Z,21.83
2019-05-25T15:53:27.323Z,27.60
2019-05-25T15:56:01.553Z,13.50
2019-05-25T15:58:35.831Z,20.55
2019-05-25T16:01:08.922Z,23.27
2019-05-25T16:03:42.192Z,15.68
2019-05-25T16:06:15.200Z,13.15
2019-05-25T16:08:48.482Z,13.00
2019-05-25T16:42:32.892Z,18.70
2019-05-25T16:45:07.313Z,15.80
2019-05-25T16:47:39.724Z,13.28
2019-05-25T16:50:14.914Z,12.65
2019-05-25T16:52:49.699Z,14.60
2019-05-25T16:55:24.035Z,14.63
2019-05-25T16:57:56.524Z,19.80
2019-05-25T17:00:31.301Z,15.25
2019-05-25T17:03:03.810Z,20.30
2019-05-25T17:05:36.395Z,12.13
2019-05-25T17:10:41.437Z,15.03
2019-05-25T17:13:14.303Z,10.43
2019-05-25T17:15:48.513Z,10.08
2019-05-25T17:18:22.336Z,9.60
2019-05-25T17:20:59.853Z,7.77
2019-05-25T17:23:36.370Z,9.05
2019-05-25T17:26:10.070Z,11.93
2019-05-25T17:28:43.465Z,13.63
2019-05-25T17:31:19.346Z,8.75
2019-05-25T17:33:52.555Z,9.30
2019-05-25T17:36:25.319Z,10.75
2019-05-25T17:38:58.010Z,8.35
2019-05-25T17:41:30.958Z,8.83
2019-05-25T17:44:03.911Z,9.58
2019-05-25T17:46:36.665Z,10.18
2019-05-25T17:49:09.483Z,9.90
2019-05-25T17:51:42.302Z,11.57
2019-05-25T17:54:14.861Z,11.55
2019-05-25T17:56:47.374Z,12.28
2019-05-25T17:59:21.705Z,10.78
2019-05-25T18:01:55.357Z,10.43
2019-05-25T18:04:28.085Z,8.88
2019-05-25T18:07:00.718Z,11.53
2019-05-25T18:09:33.303Z,10.38
2019-05-25T18:12:06.385Z,11.87
2019-05-25T18:14:39.039Z,10.00
2019-05-25T18:17:11.715Z,14.43
2019-05-25T18:19:46.316Z,14.98
2019-05-25T18:22:18.869Z,12.50
2019-05-25T18:27:35.732Z,15.60
2019-05-25T18:30:11.637Z,17.20
2019-05-25T18:32:44.308Z,22.73
2019-05-25T18:35:17.067Z,19.92
2019-05-25T18:37:49.746Z,18.27
2019-05-25T18:40:22.709Z,18.05
2019-05-25T18:42:55.301Z,22.22
2019-05-25T18:45:28.298Z,22.48
2019-05-25T18:48:00.618Z,22.80
2019-05-25T18:50:33.299Z,22.77
2019-05-25T18:53:05.940Z,19.70
2019-05-25T18:58:12.977Z,23.73
2019-05-25T19:00:45.455Z,24.75
2019-05-25T19:03:18.292Z,19.57
2019-05-25T19:05:50.726Z,21.77
2019-05-25T19:11:10.495Z,30.65
2019-05-25T19:13:43.295Z,21.12
2019-05-25T19:16:15.661Z,22.45
2019-05-25T19:18:47.588Z,37.30
2019-05-25T19:23:51.765Z,33.38
2019-05-25T19:26:25.448Z,24.62
2019-05-25T19:28:58.309Z,40.98
2019-05-25T19:31:30.818Z,24.60
2019-05-25T19:34:03.686Z,33.83
2019-05-25T19:36:36.652Z,32.38
2019-05-25T19:39:10.677Z,25.00
2019-05-25T19:41:43.386Z,29.57
2019-05-25T19:44:16.289Z,38.98
2019-05-25T19:46:49.018Z,28.02
2019-05-25T19:49:21.633Z,34.30
2019-05-25T19:51:55.529Z,35.64
2019-05-25T19:54:28.567Z,43.65
2019-05-25T19:57:01.335Z,32.70
2019-05-25T19:59:33.829Z,40.83
2019-05-25T20:02:06.808Z,43.27
2019-05-25T20:04:40.970Z,45.35
2019-05-25T20:07:16.629Z,48.38
2019-05-25T20:09:49.806Z,62.25
2019-05-25T20:12:22.340Z,33.30
2019-05-25T20:14:55.496Z,53.68
2019-05-25T20:17:28.144Z,40.00
2019-05-25T20:20:00.819Z,39.77
2019-05-25T20:22:33.475Z,44.75
2019-05-25T20:25:10.056Z,35.05
2019-05-25T20:27:42.582Z,32.63
2019-05-25T20:30:15.313Z,45.30
2019-05-25T20:32:47.827Z,41.63
2019-05-25T20:35:32.250Z,35.03
2019-05-25T20:37:55.628Z,32.94
2019-05-25T20:40:28.250Z,46.15
2019-05-25T20:43:00.717Z,44.80
2019-05-25T20:47:43.642Z,36.93
2019-05-25T20:50:18.313Z,44.80
2019-05-25T20:52:50.868Z,35.48
2019-05-25T20:55:23.444Z,55.55
2019-05-25T20:57:56.302Z,45.50
2019-05-25T21:00:29.746Z,53.30
2019-05-25T21:03:06.367Z,55.33
2019-05-25T21:05:49.605Z,50.77
2019-05-25T21:08:12.845Z,53.20
2019-05-25T21:10:48.484Z,49.50
2019-05-25T21:13:22.316Z,34.15
2019-05-25T21:15:55.882Z,51.92
2019-05-25T21:18:28.359Z,62.53
2019-05-25T21:21:00.917Z,43.40
2019-05-25T21:23:34.861Z,44.75
2019-05-25T21:26:07.662Z,57.60
2019-05-25T21:28:40.497Z,69.20
2019-05-25T21:31:13.330Z,56.73
2019-05-25T21:36:19.770Z,49.42
2019-05-25T21:38:51.866Z,52.83
2019-05-25T21:41:26.315Z,38.67
2019-05-25T21:43:58.901Z,41.25
2019-05-25T21:48:23.709Z,52.38
2019-05-25T21:50:56.538Z,69.46
2019-05-25T21:53:29.264Z,64.30
2019-05-25T21:56:01.321Z,75.92
2019-05-25T21:58:36.881Z,51.25
2019-05-25T22:01:10.311Z,46.25
2019-05-25T22:03:42.666Z,56.33
2019-05-25T22:06:23.876Z,51.53
2019-05-25T22:08:49.586Z,71.67
2019-05-25T22:11:24.856Z,44.30
2019-05-25T22:13:57.552Z,65.30
2019-05-25T22:16:34.167Z,57.98
2019-05-25T22:19:06.702Z,68.87
2019-05-25T22:21:39.283Z,75.60
2019-05-25T22:24:20.293Z,52.30
2019-05-25T22:26:54.703Z,67.35
2019-05-25T22:29:28.291Z,59.83
2019-05-25T22:32:00.975Z,67.67
2019-05-25T22:34:36.343Z,57.65
2019-05-25T22:37:11.452Z,78.00
2019-05-25T22:39:57.586Z,57.17
2019-05-25T22:42:58.826Z,86.68
2019-05-25T22:45:58.901Z,56.73
2019-05-25T22:48:34.672Z,72.30
2019-05-25T22:51:08.989Z,76.60
2019-05-25T22:53:41.878Z,61.30
2019-05-25T22:56:17.338Z,52.25
2019-05-25T22:58:57.653Z,96.60
2019-05-25T23:01:32.126Z,77.92
2019-05-25T23:04:08.525Z,81.93
2019-05-25T23:06:57.156Z,68.75
2019-05-25T23:09:25.700Z,92.75
2019-05-25T23:14:29.824Z,63.70
2019-05-25T23:17:03.014Z,66.95
2019-05-25T23:19:35.867Z,73.67
2019-05-25T23:22:08.507Z,77.27
2019-05-25T23:24:42.523Z,75.90
2019-05-25T23:27:21.420Z,69.42
2019-05-25T23:30:03.298Z,71.05
2019-05-25T23:32:36.050Z,99.62
2019-05-25T23:35:19.299Z,84.83
2019-05-25T23:37:51.685Z,75.08
2019-05-25T23:40:26.291Z,94.97
2019-05-25T23:43:00.773Z,71.37
2019-05-25T23:45:34.355Z,97.97
2019-05-25T23:48:08.587Z,91.55
2019-05-25T23:50:40.878Z,77.67
2019-05-25T23:53:13.356Z,87.27
2019-05-25T23:55:48.410Z,71.10
2019-05-25T23:58:22.381Z,107.58
